Latest Coastal Weather Observations for Legendre Island

IDW60701

Issued at 11:13 am WST Saturday 5 December 2020 (issued every 10 minutes, with the page automatically refreshed every 10 minutes)

About coastal observations | Map of coastal stations | Coastal observations for WA | Marine services | Other Formats
Station Details ID: 004095 Name: LEGENDRE ISLAND Lat: -20.36 Lon: 116.84 Height: 29.0 m
Data from the previous 72 hours. | See also: Recent months at Legendre Island
Date/Time
WST
Wind Sea
Height
m
Swell Vis
km
Cloud Weather Temp
°C
Press
MSL
hPa
Rain since
9am
mm
Dir  Spd
kts
Gust
kts
Height
m
Period
s
Dir
05/11:00am WNW 10 12 - - - - - - - 31.4 1008.0 -
05/10:30am WNW 10 11 - - - - - - - 31.2 1008.3 -
05/10:00am W 9 10 - - - - - - - 31.1 1008.3 -
05/09:30am WSW 7 9 - - - - - - - 31.2 1008.5 -
05/09:00am WSW 6 7 - - - - - - - 30.9 1008.7 -
05/08:30am SW 5 7 - - - - - - - 30.9 1009.1 -
05/08:00am SW 9 11 - - - - - - - 30.8 1008.7 -
05/07:30am SW 10 11 - - - - - - - 29.9 1008.4 -
05/07:00am SW 11 13 - - - - - - - 29.7 1008.4 -
05/06:30am SW 11 13 - - - - - - - 29.1 1008.5 -
05/06:00am SW 8 10 - - - - - - - 28.2 1008.6 -
05/05:30am SW 11 12 - - - - - - - 27.8 1008.1 -
05/05:00am SW 8 10 - - - - - - - 27.6 1008.1 -
05/04:30am SW 9 10 - - - - - - - 27.6 1008.1 -
05/04:00am SW 8 10 - - - - - - - 27.6 1008.1 -
05/03:30am SW 9 11 - - - - - - - 27.5 1007.9 -
05/03:00am SW 12 14 - - - - - - - 27.4 1008.1 -
05/02:30am SW 12 15 - - - - - - - 27.5 1008.2 -
05/02:00am SW 12 14 - - - - - - - 27.6 1008.5 -
05/01:30am WSW 11 12 - - - - - - - 27.6 1008.4 -
05/01:00am W 11 13 - - - - - - - 27.8 1008.4 -
05/12:30am WNW 9 11 - - - - - - - 27.8 1008.8 -
05/12:00am WNW 8 9 - - - - - - - 27.9 1009.2 -
 
Date/Time
WST
Wind Sea
Height
m
Swell Vis
km
Cloud Weather Temp
°C
Press
MSL
hPa
Rain since
9am
mm
Dir  Spd
kts
Gust
kts
Height
m
Period
s
Dir
04/11:30pm WNW 7 8 - - - - - - - 27.9 1009.5 -
04/11:00pm WNW 7 8 - - - - - - - 28.0 1009.6 -
04/10:30pm W 6 7 - - - - - - - 28.1 1009.7 -
04/10:00pm WNW 6 8 - - - - - - - 28.2 1009.6 -
04/09:30pm W 7 8 - - - - - - - 28.6 1009.7 -
04/09:00pm WSW 9 11 - - - - - - - 28.7 1009.7 -
04/08:30pm SW 14 18 - - - - - - - 29.0 1009.5 -
04/08:00pm SW 14 17 - - - - - - - 28.9 1009.4 -
04/07:30pm WSW 9 11 - - - - - - - 29.1 1008.8 -
04/07:00pm W 9 11 - - - - - - - 29.0 1008.0 -
04/06:30pm NW 9 10 - - - - - - - 29.1 1007.4 -
04/06:00pm NW 9 12 - - - - - - - 29.6 1007.0 -
04/05:30pm NW 9 12 - - - - - - - 29.8 1007.0 -
04/05:00pm NNW 9 10 - - - - - - - 29.9 1007.2 -
04/04:30pm N 9 10 - - - - - - - 30.3 1007.0 -
04/04:00pm N 10 11 - - - - - - - 30.0 1007.1 -
04/03:30pm N 8 9 - - - - - - - 30.3 1006.9 -
04/03:00pm N 10 11 - - - - - - - 30.9 1007.1 -
04/02:30pm NNE 10 12 - - - - - - - 30.1 1007.4 -
04/02:00pm NNE 7 8 - - - - - - - 29.7 1007.7 -
04/01:30pm NNE 8 9 - - - - - - - 31.4 1008.1 -
04/01:00pm NE 8 9 - - - - - - - 31.4 1008.4 -
04/12:30pm NE 6 6 - - - - - - - 30.8 1008.6 -
04/12:00pm NE 5 6 - - - - - - - 30.6 1008.9 -
04/11:30am ENE 5 6 - - - - - - - 30.4 1009.1 -
04/11:00am ENE 7 9 - - - - - - - 31.3 1009.5 -
04/10:30am E 9 10 - - - - - - - 31.2 1009.6 -
04/10:00am ENE 10 11 - - - - - - - 31.0 1009.6 -
04/09:30am E 10 11 - - - - - - - 30.6 1009.9 -
04/09:00am E 12 14 - - - - - - - 30.5 1009.8 -
04/08:30am E 12 13 - - - - - - - 30.1 1009.8 -
04/08:00am ESE 9 11 - - - - - - - 28.9 1009.8 -
04/07:30am ESE 9 10 - - - - - - - 28.6 1009.9 -
04/07:00am E 10 11 - - - - - - - 28.0 1009.6 -
04/06:30am E 9 11 - - - - - - - 27.8 1009.5 -
04/06:00am E 12 13 - - - - - - - 27.7 1009.4 -
04/05:30am ESE 11 13 - - - - - - - 27.5 1009.3 -
04/05:00am ESE 8 10 - - - - - - - 27.7 1009.0 -
04/04:30am SSE 7 9 - - - - - - - 27.8 1009.0 -
04/04:00am SSE 9 11 - - - - - - - 27.7 1009.3 -
04/03:30am SSE 13 16 - - - - - - - 27.5 1009.5 -
04/03:00am SE 12 17 - - - - - - - 27.7 1009.8 -
04/02:30am ESE 12 15 - - - - - - - 28.1 1010.1 -
04/02:00am SE 14 19 - - - - - - - 28.3 1010.2 -
04/01:30am SE 16 21 - - - - - - - 28.4 1010.6 -
04/01:00am SE 14 21 - - - - - - - 29.2 1010.5 -
04/12:30am SSE 13 16 - - - - - - - 29.6 1010.5 -
04/12:00am SSE 10 15 - - - - - - - 29.7 1010.8 -
 
Date/Time
WST
Wind Sea
Height
m
Swell Vis
km
Cloud Weather Temp
°C
Press
MSL
hPa
Rain since
9am
mm
Dir  Spd
kts
Gust
kts
Height
m
Period
s
Dir
03/11:30pm S 11 14 - - - - - - - 29.1 1010.9 -
03/11:00pm SW 8 10 - - - - - - - 28.3 1010.7 -
03/10:30pm SW 8 9 - - - - - - - 28.5 1010.5 -
03/10:00pm SW 6 7 - - - - - - - 28.6 1010.2 -
03/09:30pm SW 5 6 - - - - - - - 28.6 1010.1 -
03/09:00pm WSW 3 4 - - - - - - - 28.7 1010.0 -
03/08:30pm WNW 3 5 - - - - - - - 28.7 1009.7 -
03/08:00pm WNW 5 6 - - - - - - - 28.7 1009.2 -
03/07:30pm WNW 7 9 - - - - - - - 28.8 1008.5 -
03/07:00pm WNW 7 10 - - - - - - - 29.2 1008.3 -
03/06:30pm WNW 10 12 - - - - - - - 29.5 1007.6 -
03/06:00pm NW 10 12 - - - - - - - 29.8 1007.1 -
03/05:30pm NW 9 13 - - - - - - - 30.4 1006.5 -
03/05:00pm NW 11 13 - - - - - - - 30.7 1005.9 -
03/04:30pm NNW 9 11 - - - - - - - 30.9 1005.6 -
03/04:00pm NW 10 13 - - - - - - - 31.2 1005.6 -
03/03:30pm NW 11 13 - - - - - - - 31.5 1005.8 -
03/03:00pm NW 11 14 - - - - - - - 32.5 1006.2 -
03/02:30pm NW 9 12 - - - - - - - 32.1 1006.5 -
03/02:00pm NNW 9 11 - - - - - - - 32.6 1007.0 -
03/01:30pm NW 8 10 - - - - - - - 32.6 1007.6 -
03/01:00pm NW 7 9 - - - - - - - 33.4 1007.8 -
03/12:30pm NNW 7 8 - - - - - - - 31.4 1007.9 -
03/12:00pm NNW 7 8 - - - - - - - 31.5 1008.1 -
03/11:30am N 5 6 - - - - - - - 30.9 1008.7 -
03/11:00am N 4 5 - - - - - - - 31.2 1008.8 -
03/10:30am NNW 4 5 - - - - - - - 30.6 1009.2 -
03/10:00am NNW 4 5 - - - - - - - 29.6 1009.4 -
03/09:30am NNE 4 5 - - - - - - - 29.6 1009.6 -
03/09:00am NNE 3 4 - - - - - - - 29.5 1009.2 -
03/08:30am NNE 4 5 - - - - - - - 29.0 1008.8 -
03/08:00am NNE 3 3 - - - - - - - 29.0 1008.7 -
03/07:30am NE 4 5 - - - - - - - 28.7 1008.6 -
03/07:00am ENE 3 4 - - - - - - - 28.5 1008.6 -
03/06:30am NE 6 7 - - - - - - - 27.9 1008.7 -
03/06:00am ENE 7 9 - - - - - - - 27.5 1008.4 -
03/05:30am CALM 0 0 - - - - - - - 27.2 1007.9 -
03/05:00am CALM 0 0 - - - - - - - 27.1 1007.7 -
03/04:30am CALM 0 0 - - - - - - - 27.3 1007.6 -
03/04:00am WSW 1 5 - - - - - - - 27.3 1007.7 -
03/03:30am W 2 3 - - - - - - - 27.5 1007.3 -
03/03:00am W 2 3 - - - - - - - 27.5 1007.4 -
03/02:30am WSW 5 6 - - - - - - - 27.8 1007.5 -
03/02:00am SW 8 9 - - - - - - - 27.8 1007.7 -
03/01:30am WSW 6 6 - - - - - - - 27.8 1008.0 -
03/01:00am SSW 7 8 - - - - - - - 28.0 1008.4 -
03/12:30am SW 10 12 - - - - - - - 28.1 1008.3 -
03/12:00am SW 12 15 - - - - - - - 28.3 1008.8 -
 
Date/Time
WST
Wind Sea
Height
m
Swell Vis
km
Cloud Weather Temp
°C
Press
MSL
hPa
Rain since
9am
mm
Dir  Spd
kts
Gust
kts
Height
m
Period
s
Dir
02/11:30pm SW 12 15 - - - - - - - 28.3 1009.0 -
02/11:00pm SSW 12 14 - - - - - - - 27.9 1009.2 -
02/10:30pm SW 9 11 - - - - - - - 27.7 1009.3 -
02/10:00pm SSW 9 11 - - - - - - - 27.9 1009.4 -
02/09:30pm NW 8 9 - - - - - - - 27.9 1008.9 -
02/09:00pm NNW 9 11 - - - - - - - 28.0 1008.7 -
02/08:30pm NW 12 14 - - - - - - - 28.0 1008.2 -
02/08:00pm NW 13 16 - - - - - - - 28.1 1007.8 -
02/07:30pm NW 12 14 - - - - - - - 28.3 1007.4 -
02/07:00pm NNW 12 14 - - - - - - - 28.3 1007.0 -
02/06:30pm NNW 11 13 - - - - - - - 28.3 1006.7 -
02/06:00pm N 12 13 - - - - - - - 28.7 1006.4 -
02/05:30pm N 11 13 - - - - - - - 29.1 1006.5 -
02/05:00pm N 11 12 - - - - - - - 29.3 1006.4 -
02/04:30pm N 10 11 - - - - - - - 29.3 1006.3 -
02/04:00pm N 8 9 - - - - - - - 29.7 1006.5 -
02/03:30pm NNE 9 10 - - - - - - - 29.7 1006.8 -
02/03:00pm NNE 9 10 - - - - - - - 30.3 1007.3 -
02/02:30pm NNE 9 11 - - - - - - - 30.2 1007.4 -
02/02:00pm NNE 8 9 - - - - - - - 29.1 1007.7 -
02/01:30pm NNE 7 8 - - - - - - - 30.1 1008.1 -
02/01:00pm NE 8 9 - - - - - - - 30.6 1008.4 -
02/12:30pm NE 9 10 - - - - - - - 30.5 1008.9 -
02/12:00pm ENE 10 11 - - - - - - - 30.2 1009.0 -
02/11:30am ENE 9 10 - - - - - - - 30.1 1009.3 -

Other formats

Comma delimited format used in spreadsheet applications
http://www.bom.gov.au/fwo/IDW60701/IDW60701.94307.axf

JavaScript Object Notation format (JSON) in row-major order
http://www.bom.gov.au/fwo/IDW60701/IDW60701.94307.json

Data quality

Most of these data are generated automatically and are frequently updated. Quality checks on data are not normally performed. It is possible for incorrect values to appear. Refer to information at About Latest Weather Observations and please check the disclaimer before using these data.